createdAt,value
2018-04-25T00:01:16.444Z,16.00
2018-04-25T00:03:43.927Z,16.00
2018-04-25T00:06:11.508Z,16.00
2018-04-25T00:08:38.992Z,15.90
2018-04-25T00:11:06.463Z,16.00
2018-04-25T00:13:33.959Z,16.00
2018-04-25T00:16:01.517Z,15.90
2018-04-25T00:18:28.927Z,15.90
2018-04-25T00:20:56.419Z,15.90
2018-04-25T00:23:24.660Z,15.90
2018-04-25T00:25:52.140Z,15.90
2018-04-25T00:28:19.591Z,15.90
2018-04-25T00:30:47.076Z,15.90
2018-04-25T00:33:15.289Z,15.90
2018-04-25T00:35:42.772Z,15.90
2018-04-25T00:38:10.236Z,15.90
2018-04-25T00:40:37.995Z,15.90
2018-04-25T00:43:05.740Z,15.90
2018-04-25T00:45:33.224Z,15.90
2018-04-25T00:48:01.456Z,15.90
2018-04-25T00:50:29.011Z,15.90
2018-04-25T00:52:56.491Z,15.90
2018-04-25T00:55:23.957Z,15.80
2018-04-25T00:57:51.495Z,15.80
2018-04-25T01:00:18.951Z,15.70
2018-04-25T01:02:46.431Z,15.70
2018-04-25T01:05:13.999Z,15.60
2018-04-25T01:07:41.484Z,15.50
2018-04-25T01:10:08.952Z,15.50
2018-04-25T01:12:36.600Z,15.50
2018-04-25T01:15:04.068Z,15.50
2018-04-25T01:17:31.590Z,15.50
2018-04-25T01:19:59.141Z,15.50
2018-04-25T01:22:26.599Z,15.50
2018-04-25T01:25:01.647Z,15.50
2018-04-25T01:27:30.928Z,15.50
2018-04-25T01:29:59.091Z,15.50
2018-04-25T01:32:26.583Z,15.50
2018-04-25T01:35:02.923Z,15.50
2018-04-25T01:37:35.556Z,15.50
2018-04-25T01:40:03.811Z,15.50
2018-04-25T01:42:46.019Z,15.40
2018-04-25T01:45:24.153Z,15.50
2018-04-25T01:47:53.916Z,15.40
2018-04-25T01:50:36.943Z,15.40
2018-04-25T01:53:16.224Z,15.50
2018-04-25T01:55:55.675Z,15.40
2018-04-25T01:58:35.604Z,15.40
2018-04-25T02:01:14.796Z,15.40
2018-04-25T02:03:53.155Z,15.40
2018-04-25T02:06:20.686Z,15.30
2018-04-25T02:08:48.172Z,15.30
2018-04-25T02:11:15.748Z,15.20
2018-04-25T02:13:43.275Z,15.20
2018-04-25T02:16:10.843Z,15.10
2018-04-25T02:18:38.291Z,15.10
2018-04-25T02:21:05.780Z,15.10
2018-04-25T02:23:33.275Z,15.10
2018-04-25T02:26:00.733Z,15.00
2018-04-25T02:28:28.257Z,15.10
2018-04-25T02:30:56.620Z,15.10
2018-04-25T02:33:24.107Z,15.10
2018-04-25T02:35:51.560Z,15.00
2018-04-25T02:38:19.035Z,15.10
2018-04-25T02:40:46.572Z,15.10
2018-04-25T02:43:14.827Z,15.10
2018-04-25T02:45:44.087Z,15.00
2018-04-25T02:48:11.571Z,15.00
2018-04-25T02:50:39.048Z,15.10
2018-04-25T02:53:06.628Z,15.10
2018-04-25T02:55:34.133Z,15.10
2018-04-25T02:58:01.728Z,15.10
2018-04-25T03:00:29.172Z,15.10
2018-04-25T03:02:56.656Z,15.10
2018-04-25T03:05:24.885Z,15.10
2018-04-25T03:07:52.404Z,15.10
2018-04-25T03:10:19.882Z,15.20
2018-04-25T03:12:47.379Z,15.20
2018-04-25T03:15:14.860Z,15.20
2018-04-25T03:17:42.416Z,15.20
2018-04-25T03:20:10.155Z,15.20
2018-04-25T03:22:37.561Z,15.20
2018-04-25T03:25:05.095Z,15.20
2018-04-25T03:27:32.563Z,15.20
2018-04-25T03:30:00.042Z,15.20
2018-04-25T03:32:28.276Z,15.20
2018-04-25T03:34:55.758Z,15.20
2018-04-25T03:37:23.211Z,15.20
2018-04-25T03:39:50.666Z,15.20
2018-04-25T03:42:18.180Z,15.20
2018-04-25T03:44:45.627Z,15.10
2018-04-25T03:47:13.080Z,15.20
2018-04-25T03:49:40.561Z,15.20
2018-04-25T03:52:08.018Z,15.20
2018-04-25T03:54:35.479Z,15.20
2018-04-25T03:57:02.950Z,15.20
2018-04-25T03:59:30.423Z,15.10
2018-04-25T04:01:57.876Z,14.90
2018-04-25T04:04:25.363Z,14.50
2018-04-25T04:06:53.607Z,14.00
2018-04-25T04:09:21.067Z,13.90
2018-04-25T04:11:48.517Z,13.70
2018-04-25T04:14:16.022Z,13.60
2018-04-25T04:16:43.468Z,13.50
2018-04-25T04:19:10.937Z,13.30
2018-04-25T04:21:38.379Z,13.20
2018-04-25T04:24:05.822Z,13.20
2018-04-25T04:26:33.295Z,13.10
2018-04-25T04:29:00.738Z,13.10
2018-04-25T04:31:28.327Z,13.20
2018-04-25T04:33:56.659Z,13.10
2018-04-25T04:36:24.128Z,13.10
2018-04-25T04:38:51.591Z,13.20
2018-04-25T04:41:19.072Z,13.10
2018-04-25T04:43:46.515Z,13.10
2018-04-25T04:46:13.988Z,13.00
2018-04-25T04:48:41.439Z,13.00
2018-04-25T04:51:08.912Z,13.00
2018-04-25T04:53:36.378Z,13.10
2018-04-25T04:56:04.619Z,13.20
2018-04-25T04:58:32.066Z,13.20
2018-04-25T05:00:59.563Z,13.20
2018-04-25T05:03:27.012Z,13.30
2018-04-25T05:05:54.479Z,13.30
2018-04-25T05:08:22.741Z,13.40
2018-04-25T05:10:50.176Z,13.40
2018-04-25T05:13:17.635Z,13.50
2018-04-25T05:15:45.104Z,13.50
2018-04-25T05:18:12.799Z,13.60
2018-04-25T05:20:41.020Z,13.60
2018-04-25T05:23:08.499Z,13.60
2018-04-25T05:25:35.938Z,13.60
2018-04-25T05:28:03.440Z,13.60
2018-04-25T05:30:30.895Z,13.70
2018-04-25T05:32:58.338Z,13.70
2018-04-25T05:35:25.813Z,13.70
2018-04-25T05:37:54.053Z,13.80
2018-04-25T05:40:21.555Z,13.80
2018-04-25T05:42:49.051Z,13.80
2018-04-25T05:45:16.504Z,13.80
2018-04-25T05:47:44.031Z,13.80
2018-04-25T05:50:12.282Z,13.90
2018-04-25T05:52:41.531Z,13.80
2018-04-25T05:55:08.993Z,13.80
2018-04-25T05:57:36.460Z,13.90
2018-04-25T06:00:04.000Z,13.90
2018-04-25T06:02:31.444Z,13.90
2018-04-25T06:04:59.772Z,14.10
2018-04-25T06:07:27.239Z,14.00
2018-04-25T06:09:54.683Z,14.10
2018-04-25T06:12:22.228Z,14.10
2018-04-25T06:14:49.606Z,14.00
2018-04-25T06:17:17.092Z,14.00
2018-04-25T06:19:44.560Z,14.00
2018-04-25T06:22:12.008Z,14.00
2018-04-25T06:24:39.517Z,14.00
2018-04-25T06:27:07.012Z,13.90
2018-04-25T06:29:34.470Z,13.80
2018-04-25T06:32:01.943Z,13.80
2018-04-25T06:34:29.382Z,13.80
2018-04-25T06:36:56.876Z,13.80
2018-04-25T06:39:24.334Z,13.90
2018-04-25T06:41:52.582Z,13.90
2018-04-25T06:44:20.056Z,13.90
2018-04-25T06:46:47.503Z,14.00
2018-04-25T06:49:14.977Z,14.00
2018-04-25T06:51:42.512Z,14.00
2018-04-25T06:54:09.979Z,14.00
2018-04-25T06:56:37.490Z,13.90
2018-04-25T06:59:04.932Z,13.80
2018-04-25T07:01:33.176Z,13.60
2018-04-25T07:04:00.658Z,13.60
2018-04-25T07:06:28.873Z,13.70
2018-04-25T07:08:56.352Z,13.70
2018-04-25T07:11:23.803Z,13.80
2018-04-25T07:13:51.276Z,13.90
2018-04-25T07:16:18.747Z,14.00
2018-04-25T07:18:46.256Z,14.10
2018-04-25T07:21:13.738Z,14.20
2018-04-25T07:23:41.196Z,14.30
2018-04-25T07:26:08.638Z,14.30
2018-04-25T07:28:36.108Z,14.50
2018-04-25T07:31:03.555Z,14.50
2018-04-25T07:33:31.032Z,14.60
2018-04-25T07:35:58.564Z,14.60
2018-04-25T07:38:26.031Z,14.60
2018-04-25T07:40:53.484Z,14.60
2018-04-25T07:43:20.959Z,14.70
2018-04-25T07:45:49.175Z,14.90
2018-04-25T07:48:16.636Z,14.90
2018-04-25T07:50:44.243Z,15.00
2018-04-25T07:53:11.714Z,15.00
2018-04-25T07:55:39.159Z,15.10
2018-04-25T07:58:06.645Z,15.10
2018-04-25T08:00:34.136Z,15.10
2018-04-25T08:03:01.591Z,15.00
2018-04-25T08:05:29.844Z,15.20
2018-04-25T08:07:57.307Z,15.10
2018-04-25T08:10:24.791Z,15.40
2018-04-25T08:13:04.006Z,15.40
2018-04-25T08:15:43.313Z,15.40
2018-04-25T08:18:22.651Z,15.40
2018-04-25T08:23:53.631Z,15.20
2018-04-25T08:26:21.071Z,15.20
2018-04-25T08:28:48.542Z,15.20
2018-04-25T08:31:16.081Z,15.20
2018-04-25T08:33:43.552Z,15.10
2018-04-25T08:36:11.007Z,15.10
2018-04-25T08:38:38.471Z,15.10
2018-04-25T08:41:05.914Z,15.10
2018-04-25T08:43:33.389Z,15.10
2018-04-25T08:46:00.867Z,15.20
2018-04-25T08:48:28.339Z,15.20
2018-04-25T08:50:55.823Z,15.30
2018-04-25T08:53:23.314Z,15.30
2018-04-25T08:55:51.537Z,15.30
2018-04-25T08:58:19.750Z,15.50
2018-04-25T09:00:47.239Z,15.40
2018-04-25T09:03:14.684Z,15.50
2018-04-25T09:05:42.229Z,15.70
2018-04-25T09:08:10.425Z,16.00
2018-04-25T09:10:37.878Z,16.00
2018-04-25T09:13:05.352Z,16.10
2018-04-25T09:15:32.903Z,16.10
2018-04-25T09:18:01.048Z,16.00
2018-04-25T09:20:28.502Z,16.00
2018-04-25T09:22:55.975Z,15.90
2018-04-25T09:25:23.418Z,15.80
2018-04-25T09:27:50.883Z,15.70
2018-04-25T09:30:18.334Z,15.60
2018-04-25T09:32:45.815Z,15.70
2018-04-25T09:35:13.296Z,15.60
2018-04-25T09:37:40.741Z,15.60
2018-04-25T09:40:08.223Z,15.60
2018-04-25T09:42:36.471Z,15.60
2018-04-25T09:45:03.933Z,15.60
2018-04-25T09:47:31.394Z,15.60
2018-04-25T09:49:58.852Z,15.70
2018-04-25T09:52:26.319Z,16.00
2018-04-25T09:54:53.796Z,16.20
2018-04-25T09:57:22.047Z,16.30
2018-04-25T10:00:02.336Z,16.30
2018-04-25T10:02:33.537Z,16.40
2018-04-25T10:05:01.032Z,16.40
2018-04-25T10:07:28.483Z,16.30
2018-04-25T10:09:55.935Z,16.30
2018-04-25T10:12:23.419Z,16.40
2018-04-25T10:14:51.645Z,16.60
2018-04-25T10:17:19.161Z,16.60
2018-04-25T10:19:46.579Z,16.80
2018-04-25T10:22:14.059Z,16.80
2018-04-25T10:24:42.292Z,16.80
2018-04-25T10:27:09.732Z,16.80
2018-04-25T10:29:37.212Z,16.90
2018-04-25T10:32:04.751Z,16.90
2018-04-25T10:34:32.140Z,16.90
2018-04-25T10:36:59.602Z,16.90
2018-04-25T10:39:27.051Z,16.90
2018-04-25T10:41:54.519Z,16.70
2018-04-25T10:44:21.996Z,16.50
2018-04-25T10:46:49.449Z,16.50
2018-04-25T10:49:16.904Z,16.50
2018-04-25T10:51:44.387Z,16.50
2018-04-25T10:54:12.612Z,16.50
2018-04-25T10:56:40.089Z,16.40
2018-04-25T10:59:07.552Z,16.40
2018-04-25T11:01:35.027Z,16.20
2018-04-25T11:04:03.243Z,15.90
2018-04-25T11:06:30.695Z,15.80
2018-04-25T11:08:58.197Z,15.70
2018-04-25T11:11:25.644Z,15.70
2018-04-25T11:13:53.170Z,15.60
2018-04-25T11:16:20.631Z,15.60
2018-04-25T11:18:48.086Z,15.40
2018-04-25T11:21:15.631Z,15.40
2018-04-25T11:23:43.083Z,15.40
2018-04-25T11:26:11.302Z,15.00
2018-04-25T11:28:38.783Z,15.00
2018-04-25T11:31:06.227Z,15.00
2018-04-25T11:33:33.691Z,14.90
2018-04-25T11:36:01.169Z,14.80
2018-04-25T11:38:28.621Z,14.80
2018-04-25T11:40:56.090Z,14.80
2018-04-25T11:43:23.538Z,14.90
2018-04-25T11:45:51.007Z,14.90
2018-04-25T11:48:19.248Z,15.20
2018-04-25T11:50:46.745Z,15.10
2018-04-25T11:53:14.998Z,15.30
2018-04-25T11:55:42.448Z,15.30
2018-04-25T11:58:09.926Z,15.50
2018-04-25T12:00:37.370Z,15.60
2018-04-25T12:03:04.820Z,15.80
2018-04-25T12:05:32.449Z,16.20
2018-04-25T12:08:00.019Z,16.50
2018-04-25T12:10:27.467Z,16.90
2018-04-25T12:12:54.920Z,17.10
2018-04-25T12:15:22.391Z,17.20
2018-04-25T12:17:49.851Z,17.20
2018-04-25T12:20:17.383Z,17.20
2018-04-25T12:22:44.839Z,17.30
2018-04-25T12:25:13.071Z,17.60
2018-04-25T12:27:40.521Z,17.60
2018-04-25T12:30:07.989Z,17.70
2018-04-25T12:32:35.450Z,17.70
2018-04-25T12:35:02.923Z,17.60
2018-04-25T12:37:30.442Z,17.50
2018-04-25T12:39:57.935Z,17.40
2018-04-25T12:42:25.405Z,17.50
2018-04-25T12:44:52.880Z,17.70
2018-04-25T12:47:21.189Z,18.00
2018-04-25T12:49:49.435Z,18.30
2018-04-25T12:52:17.684Z,18.60
2018-04-25T12:54:45.169Z,18.60
2018-04-25T12:57:13.379Z,18.90
2018-04-25T12:59:40.877Z,18.90
2018-04-25T13:02:08.347Z,18.90
2018-04-25T13:04:36.551Z,18.30
2018-04-25T13:07:04.032Z,18.20
2018-04-25T13:09:31.478Z,18.20
2018-04-25T13:11:59.019Z,18.40
2018-04-25T13:14:26.488Z,18.60
2018-04-25T13:16:53.944Z,18.80
2018-04-25T13:19:21.411Z,18.70
2018-04-25T13:21:48.970Z,18.40
2018-04-25T13:24:16.419Z,18.10
2018-04-25T13:26:43.897Z,17.70
2018-04-25T13:29:11.369Z,17.50
2018-04-25T13:31:38.841Z,17.50
2018-04-25T13:34:06.310Z,17.70
2018-04-25T13:36:33.763Z,18.00
2018-04-25T13:39:01.222Z,18.50
2018-04-25T13:41:28.723Z,18.70
2018-04-25T13:43:56.202Z,18.30
2018-04-25T13:46:23.680Z,18.00
2018-04-25T13:48:51.131Z,17.90
2018-04-25T13:51:18.587Z,17.80
2018-04-25T13:53:46.058Z,17.70
2018-04-25T13:56:13.498Z,17.50
2018-04-25T13:58:40.964Z,17.40
2018-04-25T14:01:08.434Z,17.40
2018-04-25T14:03:35.882Z,19.30
2018-04-25T14:06:03.434Z,21.00
2018-04-25T14:08:30.866Z,21.60
2018-04-25T14:10:58.425Z,24.70
2018-04-25T14:13:25.866Z,28.30
2018-04-25T14:15:54.275Z,28.90
2018-04-25T14:18:21.751Z,28.90
2018-04-25T14:20:49.218Z,26.30
2018-04-25T14:23:16.694Z,24.30
2018-04-25T14:25:44.135Z,22.70
2018-04-25T14:28:11.595Z,21.50
2018-04-25T14:30:39.823Z,20.50
2018-04-25T14:33:07.268Z,20.50
2018-04-25T14:35:35.512Z,21.50
2018-04-25T14:38:02.992Z,21.50
2018-04-25T14:40:30.442Z,22.50
2018-04-25T14:42:57.961Z,26.30
2018-04-25T14:45:26.193Z,31.60
2018-04-25T14:47:53.664Z,31.50
2018-04-25T14:50:21.110Z,33.30
2018-04-25T14:52:48.591Z,34.30
2018-04-25T14:55:16.044Z,35.20
2018-04-25T14:57:43.527Z,36.00
2018-04-25T15:00:11.004Z,35.70
2018-04-25T15:02:38.476Z,36.20
2018-04-25T15:05:05.923Z,37.30
2018-04-25T15:07:33.408Z,37.80
2018-04-25T15:10:00.895Z,38.20
2018-04-25T15:12:28.387Z,36.80
2018-04-25T15:14:55.835Z,36.00
2018-04-25T15:17:23.284Z,36.60
2018-04-25T15:19:50.909Z,37.10
2018-04-25T15:22:18.291Z,36.80
2018-04-25T15:24:45.760Z,36.70
2018-04-25T15:27:13.220Z,37.30
2018-04-25T15:29:40.691Z,37.70
2018-04-25T15:32:08.160Z,37.80
2018-04-25T15:34:35.611Z,37.10
2018-04-25T15:37:03.083Z,37.60
2018-04-25T15:39:30.535Z,37.20
2018-04-25T15:41:57.985Z,34.90
2018-04-25T15:44:25.464Z,32.50
2018-04-25T15:46:52.920Z,31.00
2018-04-25T15:49:20.376Z,30.10
2018-04-25T15:51:47.830Z,29.80
2018-04-25T15:54:16.051Z,29.30
2018-04-25T15:56:43.569Z,29.20
2018-04-25T15:59:11.297Z,29.00
2018-04-25T16:01:38.931Z,28.70
2018-04-25T16:04:07.298Z,28.40
2018-04-25T16:06:34.820Z,28.40
2018-04-25T16:09:02.289Z,27.70
2018-04-25T16:11:29.747Z,25.80
2018-04-25T16:13:57.262Z,24.20
2018-04-25T16:16:24.711Z,22.90
2018-04-25T16:18:52.923Z,21.50
2018-04-25T16:21:20.408Z,21.50
2018-04-25T16:23:48.631Z,21.50
2018-04-25T16:26:16.099Z,21.50
2018-04-25T16:28:43.666Z,21.60
2018-04-25T16:31:11.237Z,21.40
2018-04-25T16:33:38.683Z,20.90
2018-04-25T16:36:06.167Z,20.50
2018-04-25T16:38:33.653Z,20.20
2018-04-25T16:41:01.107Z,19.90
2018-04-25T16:43:28.583Z,19.70
2018-04-25T16:45:56.049Z,19.60
2018-04-25T16:48:23.517Z,19.40
2018-04-25T16:50:50.963Z,19.20
2018-04-25T16:53:19.203Z,18.90
2018-04-25T16:55:46.660Z,18.90
2018-04-25T16:58:14.135Z,18.80
2018-04-25T17:00:41.611Z,18.60
2018-04-25T17:03:09.861Z,18.50
2018-04-25T17:05:37.350Z,18.50
2018-04-25T17:08:05.558Z,19.40
2018-04-25T17:10:33.022Z,19.40
2018-04-25T17:13:00.492Z,20.00
2018-04-25T17:15:28.761Z,19.30
2018-04-25T17:17:56.334Z,19.30
2018-04-25T17:20:23.806Z,19.10
2018-04-25T17:22:51.263Z,19.10
2018-04-25T17:25:18.758Z,19.10
2018-04-25T17:27:46.967Z,18.70
2018-04-25T17:30:14.469Z,18.70
2018-04-25T17:32:41.920Z,18.50
2018-04-25T17:35:09.372Z,18.30
2018-04-25T17:37:36.853Z,18.10
2018-04-25T17:40:04.312Z,17.90
2018-04-25T17:42:31.782Z,17.70
2018-04-25T17:44:59.997Z,17.40
2018-04-25T17:47:27.479Z,17.40
2018-04-25T17:49:54.935Z,17.20
2018-04-25T17:52:22.391Z,17.10
2018-04-25T17:54:49.871Z,17.00
2018-04-25T17:57:18.092Z,16.80
2018-04-25T17:59:45.648Z,16.80
2018-04-25T18:02:13.116Z,16.70
2018-04-25T18:04:40.656Z,16.60
2018-04-25T18:07:08.122Z,16.60
2018-04-25T18:09:35.598Z,16.50
2018-04-25T18:12:03.048Z,16.50
2018-04-25T18:14:30.496Z,16.40
2018-04-25T18:16:57.980Z,16.30
2018-04-25T18:19:25.432Z,16.20
2018-04-25T18:21:52.981Z,16.10
2018-04-25T18:24:20.439Z,16.00
2018-04-25T18:26:47.900Z,15.90
2018-04-25T18:29:15.430Z,15.80
2018-04-25T18:31:43.699Z,15.70
2018-04-25T18:34:11.911Z,15.60
2018-04-25T18:36:39.373Z,15.60
2018-04-25T18:39:06.840Z,15.50
2018-04-25T18:41:34.304Z,15.50
2018-04-25T18:44:01.859Z,15.40
2018-04-25T18:46:29.268Z,15.30
2018-04-25T18:48:57.519Z,15.20
2018-04-25T18:51:25.001Z,15.10
2018-04-25T18:53:53.282Z,14.90
2018-04-25T18:56:21.524Z,14.80
2018-04-25T18:58:49.011Z,14.80
2018-04-25T19:01:17.247Z,14.50
2018-04-25T19:03:44.729Z,14.40
2018-04-25T19:06:12.484Z,14.30
2018-04-25T19:08:40.229Z,14.30
2018-04-25T19:11:07.711Z,14.20
2018-04-25T19:13:35.167Z,14.20
2018-04-25T19:16:02.694Z,14.20
2018-04-25T19:18:30.151Z,14.20
2018-04-25T19:20:58.100Z,14.20
2018-04-25T19:23:25.585Z,14.20
2018-04-25T19:25:53.085Z,14.20
2018-04-25T19:28:20.826Z,14.20
2018-04-25T19:30:48.371Z,14.20
2018-04-25T19:33:15.855Z,14.20
2018-04-25T19:35:43.293Z,14.10
2018-04-25T19:38:11.004Z,14.10
2018-04-25T19:40:38.652Z,14.00
2018-04-25T19:43:06.118Z,14.00
2018-04-25T19:45:34.483Z,13.90
2018-04-25T19:48:01.992Z,13.90
2018-04-25T19:50:29.618Z,13.90
2018-04-25T19:52:57.386Z,13.90
2018-04-25T19:55:24.867Z,13.80
2018-04-25T19:57:52.461Z,13.70
2018-04-25T20:00:20.028Z,13.70
2018-04-25T20:02:47.630Z,13.70
2018-04-25T20:05:15.881Z,13.60
2018-04-25T20:07:43.394Z,13.60
2018-04-25T20:10:10.885Z,13.60
2018-04-25T20:12:38.368Z,13.50
2018-04-25T20:15:05.838Z,13.40
2018-04-25T20:17:34.075Z,13.30
2018-04-25T20:20:01.585Z,13.30
2018-04-25T20:22:29.803Z,13.20
2018-04-25T20:24:57.283Z,13.10
2018-04-25T20:27:24.734Z,13.10
2018-04-25T20:29:52.174Z,13.10
2018-04-25T20:32:19.643Z,13.00
2018-04-25T20:34:47.140Z,13.00
2018-04-25T20:37:15.396Z,12.90
2018-04-25T20:39:42.851Z,12.90
2018-04-25T20:42:10.473Z,12.90
2018-04-25T20:44:37.915Z,12.80
2018-04-25T20:47:05.355Z,12.80
2018-04-25T20:49:32.818Z,12.70
2018-04-25T20:52:01.040Z,12.70
2018-04-25T20:54:28.533Z,12.70
2018-04-25T20:56:56.019Z,12.70
2018-04-25T20:59:23.443Z,12.60
2018-04-25T21:01:50.912Z,12.70
2018-04-25T21:04:18.375Z,12.70
2018-04-25T21:06:46.611Z,12.60
2018-04-25T21:09:14.062Z,12.60
2018-04-25T21:11:41.524Z,12.70
2018-04-25T21:14:09.000Z,12.70
2018-04-25T21:16:36.451Z,12.70
2018-04-25T21:19:03.927Z,12.70
2018-04-25T21:21:31.376Z,12.60
2018-04-25T21:23:58.838Z,12.70
2018-04-25T21:26:26.359Z,12.70
2018-04-25T21:28:53.863Z,12.70
2018-04-25T21:31:22.192Z,12.60
2018-04-25T21:33:49.574Z,12.60
2018-04-25T21:36:17.032Z,12.60
2018-04-25T21:38:44.508Z,12.60
2018-04-25T21:41:11.990Z,12.60
2018-04-25T21:43:40.207Z,12.70
2018-04-25T21:46:07.675Z,12.70
2018-04-25T21:48:35.152Z,12.70
2018-04-25T21:51:02.595Z,12.70
2018-04-25T21:53:30.041Z,12.70
2018-04-25T21:55:57.512Z,12.70
2018-04-25T21:58:25.080Z,12.70
2018-04-25T22:00:53.223Z,12.70
2018-04-25T22:03:20.691Z,12.70
2018-04-25T22:05:48.143Z,12.70
2018-04-25T22:08:15.694Z,12.60
2018-04-25T22:10:43.158Z,12.60
2018-04-25T22:13:10.632Z,12.50
2018-04-25T22:15:38.111Z,12.40
2018-04-25T22:18:05.587Z,12.40
2018-04-25T22:20:33.039Z,12.30
2018-04-25T22:23:00.521Z,12.30
2018-04-25T22:25:28.021Z,12.30
2018-04-25T22:27:55.481Z,12.30
2018-04-25T22:30:22.952Z,12.30
2018-04-25T22:32:50.444Z,12.30
2018-04-25T22:35:18.668Z,12.20
2018-04-25T22:37:46.117Z,12.20
2018-04-25T22:40:13.680Z,12.20
2018-04-25T22:42:41.140Z,12.10
2018-04-25T22:45:08.587Z,12.10
2018-04-25T22:47:36.076Z,12.00
2018-04-25T22:50:03.524Z,12.00
2018-04-25T22:52:30.981Z,12.00
2018-04-25T22:54:58.504Z,12.10
2018-04-25T22:57:25.947Z,12.10
2018-04-25T22:59:53.412Z,12.10
2018-04-25T23:02:20.860Z,12.20
2018-04-25T23:04:48.353Z,12.10
2018-04-25T23:07:15.803Z,12.20
2018-04-25T23:09:43.276Z,12.20
2018-04-25T23:12:10.822Z,12.20
2018-04-25T23:14:38.300Z,12.20
2018-04-25T23:17:05.765Z,12.20
2018-04-25T23:19:33.240Z,12.20
2018-04-25T23:22:00.714Z,12.20
2018-04-25T23:24:28.156Z,12.20
2018-04-25T23:26:55.647Z,12.20
2018-04-25T23:29:23.860Z,12.20
2018-04-25T23:31:51.348Z,12.20
2018-04-25T23:34:18.825Z,12.20
2018-04-25T23:36:46.299Z,12.10
2018-04-25T23:39:13.754Z,12.00
2018-04-25T23:41:42.891Z,11.80
2018-04-25T23:46:44.179Z,11.70
2018-04-25T23:49:11.643Z,11.70
2018-04-25T23:51:39.090Z,11.60
2018-04-25T23:54:06.572Z,11.50
2018-04-25T23:56:34.018Z,11.50
2018-04-25T23:59:01.493Z,11.50
